Terminal Aerodrome Forecast
Issued by NWS Upton, NY

Home | Current Version | Previous Version | Text Only | Print | Product List | Glossary On
Versions: 1 2 3 4 5 6 7 8 9 10 11 12 13 14 15 16 17 18 19 20 21 22 23 24 25 26 27 28 29 30 31 32 33 34 35 36 37 38
000
FTUS41 KOKX 202153 AAB
TAFJFK
TAF AMD
KJFK 202153Z 2022/2124 17008KT P6SM SCT015 BKN250
     FM210300 20010KT 3SM BR BKN007
     FM210500 20008KT 1/2SM FG BKN004
     FM211300 21009KT 2SM BR SCT005 BKN015
     FM211500 22011KT 5SM BR SCT010 SCT040
     FM211700 22012G18KT P6SM SCT040
     FM212100 20009KT P6SM BKN025=

USA.gov is the U.S. government's official web portal to all federal, state and local government web resources and services.